Terminal Aerodrome Forecast
Issued by NWS Amarillo, TX

Home | Current Version | Previous Version | Text Only | Print | Product List | Glossary On
Versions: 1 2 3 4 5 6 7 8 9 10 11 12 13 14 15 16 17 18 19 20 21
000
FTUS44 KAMA 301100
TAFDHT
TAF
KDHT 301131Z 3012/3112 25006KT P6SM -RA VCTS BKN040CB
     FM301300 33010KT P6SM -RA VCTS SCT020 OVC060CB
     FM301900 03015G25KT P6SM SCT025 OVC080
     FM310300 04010KT P6SM SCT005 OVC025=

USA.gov is the U.S. government's official web portal to all federal, state and local government web resources and services.